createdAt,value
2022-12-23T00:00:16.345Z,5.85
2022-12-23T00:02:43.606Z,6.47
2022-12-23T00:05:37.353Z,6.88
2022-12-23T00:08:39.638Z,6.84
2022-12-23T00:11:20.515Z,6.83
2022-12-23T00:14:05.939Z,6.65
2022-12-23T00:16:36.157Z,5.53
2022-12-23T00:19:03.151Z,5.92
2022-12-23T00:21:30.349Z,6.43
2022-12-23T00:23:57.205Z,6.25
2022-12-23T00:26:27.525Z,6.40
2022-12-23T00:28:58.763Z,6.50
2022-12-23T00:31:26.148Z,5.73
2022-12-23T00:33:54.402Z,6.00
2022-12-23T00:36:44.665Z,6.17
2022-12-23T00:40:06.793Z,6.34
2022-12-23T00:42:56.040Z,6.07
2022-12-23T00:45:22.886Z,5.96
2022-12-23T00:48:19.684Z,5.36
2022-12-23T00:50:46.787Z,5.65
2022-12-23T00:53:34.742Z,5.77
2022-12-23T00:56:15.352Z,6.04
2022-12-23T00:58:42.421Z,6.16
2022-12-23T01:01:28.332Z,6.34
2022-12-23T01:04:33.683Z,6.30
2022-12-23T01:07:14.439Z,6.30
2022-12-23T01:09:41.371Z,6.13
2022-12-23T01:12:08.539Z,5.85
2022-12-23T01:14:35.679Z,5.45
2022-12-23T01:17:02.832Z,5.98
2022-12-23T01:19:29.875Z,6.43
2022-12-23T01:21:56.892Z,6.61
2022-12-23T01:24:30.629Z,6.41
2022-12-23T01:26:57.672Z,6.13
2022-12-23T01:29:25.470Z,6.19
2022-12-23T01:31:52.515Z,5.78
2022-12-23T01:34:19.990Z,6.17
2022-12-23T01:37:06.727Z,5.25
2022-12-23T01:40:07.761Z,6.47
2022-12-23T01:42:48.296Z,6.27
2022-12-23T01:45:21.569Z,6.51
2022-12-23T01:48:03.153Z,6.39
2022-12-23T01:50:36.361Z,6.53
2022-12-23T01:53:34.820Z,6.31
2022-12-23T01:56:24.026Z,6.06
2022-12-23T01:58:54.736Z,5.99
2022-12-23T02:01:40.853Z,5.43
2022-12-23T02:04:31.695Z,6.26
2022-12-23T02:07:31.679Z,6.32
2022-12-23T02:09:59.461Z,6.60
2022-12-23T02:12:37.242Z,4.54
2022-12-23T02:15:32.403Z,6.13
2022-12-23T02:18:05.539Z,6.38
2022-12-23T02:21:11.314Z,6.34
2022-12-23T02:24:29.742Z,6.48
2022-12-23T02:27:16.384Z,6.34
2022-12-23T02:29:55.614Z,6.28
2022-12-23T02:32:48.637Z,6.55
2022-12-23T02:35:42.494Z,6.54
2022-12-23T02:38:43.719Z,6.44
2022-12-23T02:41:59.814Z,6.06
2022-12-23T02:44:47.585Z,6.15
2022-12-23T02:47:25.025Z,6.21
2022-12-23T02:49:57.074Z,6.20
2022-12-23T02:52:31.778Z,5.93
2022-12-23T02:55:35.883Z,6.40
2022-12-23T02:58:07.890Z,6.46
2022-12-23T03:00:38.661Z,5.97
2022-12-23T03:03:05.806Z,6.17
2022-12-23T03:05:58.789Z,6.32
2022-12-23T03:09:00.765Z,6.10
2022-12-23T03:12:07.775Z,6.17
2022-12-23T03:15:15.795Z,6.27
2022-12-23T03:17:52.755Z,6.31
2022-12-23T03:20:30.869Z,6.17
2022-12-23T03:23:26.038Z,5.94
2022-12-23T03:26:03.774Z,6.36
2022-12-23T03:28:39.570Z,6.39
2022-12-23T03:31:11.447Z,6.08
2022-12-23T03:33:44.481Z,5.86
2022-12-23T03:36:53.816Z,5.80
2022-12-23T03:40:00.762Z,6.03
2022-12-23T03:42:47.957Z,6.36
2022-12-23T03:45:40.826Z,5.96
2022-12-23T03:48:31.910Z,6.48
2022-12-23T03:51:04.389Z,6.04
2022-12-23T03:53:58.841Z,6.29
2022-12-23T03:56:45.674Z,5.79
2022-12-23T03:59:22.030Z,5.41
2022-12-23T04:02:24.071Z,3.93
2022-12-23T04:05:34.812Z,6.22
2022-12-23T04:08:28.952Z,4.44
2022-12-23T04:11:07.432Z,5.13
2022-12-23T04:13:38.812Z,6.15
2022-12-23T04:16:07.996Z,6.08
2022-12-23T04:18:39.850Z,3.85
2022-12-23T04:21:10.279Z,4.52
2022-12-23T04:26:23.659Z,4.22
2022-12-23T04:29:15.784Z,3.81
2022-12-23T04:31:51.678Z,5.32
2022-12-23T04:34:19.233Z,4.27
2022-12-23T04:37:18.956Z,6.25
2022-12-23T04:43:36.603Z,4.91
2022-12-23T04:46:30.996Z,5.51
2022-12-23T04:49:12.016Z,4.12
2022-12-23T04:51:41.085Z,6.11
2022-12-23T04:54:24.038Z,6.11
2022-12-23T04:57:07.288Z,4.65
2022-12-23T04:59:43.517Z,4.75
2022-12-23T05:02:11.921Z,6.07
2022-12-23T05:05:09.830Z,4.07
2022-12-23T05:08:06.177Z,3.60
2022-12-23T05:10:36.090Z,5.27
2022-12-23T05:13:04.730Z,5.44
2022-12-23T05:15:35.490Z,5.24
2022-12-23T05:18:07.680Z,3.89
2022-12-23T05:20:35.276Z,5.40
2022-12-23T05:23:19.422Z,5.38
2022-12-23T05:25:54.065Z,5.18
2022-12-23T05:28:28.214Z,5.12
2022-12-23T05:31:23.020Z,5.76
2022-12-23T05:34:07.557Z,3.60
2022-12-23T05:40:34.056Z,4.96
2022-12-23T05:43:47.267Z,4.34
2022-12-23T05:46:50.411Z,3.33
2022-12-23T05:49:13.344Z,3.15
2022-12-23T05:51:57.799Z,4.90
2022-12-23T05:54:35.243Z,3.52
2022-12-23T05:57:08.396Z,5.67
2022-12-23T05:59:49.363Z,4.45
2022-12-23T06:02:31.528Z,5.77
2022-12-23T06:05:31.824Z,3.37
2022-12-23T06:08:32.211Z,5.75
2022-12-23T06:11:10.120Z,5.66
2022-12-23T06:13:39.863Z,3.66
2022-12-23T06:16:31.220Z,3.74
2022-12-23T06:19:33.810Z,4.85
2022-12-23T06:22:22.992Z,3.74
2022-12-23T06:25:27.231Z,3.40
2022-12-23T06:28:13.462Z,3.66
2022-12-23T06:30:45.733Z,3.30
2022-12-23T06:33:34.486Z,4.83
2022-12-23T06:36:10.071Z,4.87
2022-12-23T06:39:03.912Z,5.01
2022-12-23T06:42:14.161Z,4.58
2022-12-23T06:45:16.783Z,3.92
2022-12-23T06:47:52.699Z,5.19
2022-12-23T06:50:50.726Z,5.06
2022-12-23T06:54:02.598Z,3.74
2022-12-23T06:56:48.525Z,4.90
2022-12-23T06:59:17.696Z,4.66
2022-12-23T07:02:20.510Z,4.23
2022-12-23T07:05:25.064Z,3.97
2022-12-23T07:08:08.737Z,5.84
2022-12-23T07:10:44.885Z,3.57
2022-12-23T07:13:16.045Z,3.51
2022-12-23T07:15:46.917Z,3.75
2022-12-23T07:18:23.825Z,3.64
2022-12-23T07:20:54.138Z,3.97
2022-12-23T07:23:25.734Z,4.30
2022-12-23T07:28:45.173Z,4.52
2022-12-23T07:31:24.103Z,4.65
2022-12-23T07:34:45.812Z,4.69
2022-12-23T07:37:51.381Z,6.71
2022-12-23T07:40:47.988Z,6.61
2022-12-23T07:43:22.009Z,5.55
2022-12-23T07:50:03.506Z,4.65
2022-12-23T07:52:31.354Z,4.62
2022-12-23T07:55:01.319Z,6.30
2022-12-23T07:57:49.314Z,5.08
2022-12-23T08:04:31.483Z,6.10
2022-12-23T08:07:35.869Z,4.58
2022-12-23T08:10:48.034Z,4.65
2022-12-23T08:14:14.266Z,5.56
2022-12-23T08:17:06.589Z,7.28
2022-12-23T08:19:35.459Z,6.43
2022-12-23T08:22:30.606Z,5.77
2022-12-23T08:28:28.653Z,7.51
2022-12-23T08:31:52.583Z,7.65
2022-12-23T08:34:43.235Z,5.86
2022-12-23T08:37:21.384Z,6.52
2022-12-23T08:40:02.832Z,6.48
2022-12-23T08:42:37.329Z,6.48
2022-12-23T08:45:19.202Z,7.85
2022-12-23T08:48:09.322Z,7.17
2022-12-23T08:50:53.909Z,6.82
2022-12-23T08:53:46.055Z,6.19
2022-12-23T08:56:28.251Z,8.11
2022-12-23T08:59:19.531Z,6.17
2022-12-23T09:01:55.654Z,6.08
2022-12-23T09:04:46.953Z,7.23
2022-12-23T09:08:10.280Z,6.83
2022-12-23T09:11:03.784Z,6.00
2022-12-23T09:14:26.727Z,6.59
2022-12-23T09:18:22.618Z,6.53
2022-12-23T09:21:33.901Z,6.92
2022-12-23T09:24:42.645Z,5.80
2022-12-23T09:27:49.991Z,6.16
2022-12-23T10:28:06.949Z,6.52
2022-12-23T10:31:39.331Z,7.30
2022-12-23T10:33:38.486Z,6.51
2022-12-23T10:38:38.533Z,8.86
2022-12-23T10:41:57.321Z,8.79
2022-12-23T10:49:14.703Z,7.12
2022-12-23T10:58:11.527Z,7.55
2022-12-23T11:01:26.797Z,6.83
2022-12-23T11:04:53.554Z,8.12
2022-12-23T11:08:05.887Z,7.73
2022-12-23T11:11:24.742Z,9.33
2022-12-23T11:18:47.315Z,9.66
2022-12-23T11:21:49.165Z,8.08
2022-12-23T11:24:57.049Z,8.35
2022-12-23T11:31:27.583Z,7.27
2022-12-23T11:34:52.451Z,7.83
2022-12-23T12:00:33.107Z,9.26
2022-12-23T12:03:20.797Z,9.83
2022-12-23T12:06:17.046Z,9.82
2022-12-23T12:09:00.243Z,10.04
2022-12-23T12:11:39.830Z,9.23
2022-12-23T12:14:11.150Z,9.07
2022-12-23T12:16:47.815Z,10.80
2022-12-23T12:19:26.215Z,10.94
2022-12-23T12:21:58.280Z,10.67
2022-12-23T12:24:48.731Z,10.84
2022-12-23T12:27:49.055Z,9.97
2022-12-23T12:30:40.213Z,9.98
2022-12-23T12:34:04.100Z,10.92
2022-12-23T12:36:59.830Z,10.39
2022-12-23T12:39:42.080Z,10.46
2022-12-23T12:42:14.675Z,10.29
2022-12-23T12:45:16.038Z,9.76
2022-12-23T12:48:46.086Z,9.17
2022-12-23T12:51:56.059Z,10.04
2022-12-23T12:54:50.965Z,10.37
2022-12-23T12:57:39.090Z,10.55
2022-12-23T13:00:22.465Z,9.90
2022-12-23T13:03:01.610Z,10.37
2022-12-23T13:05:55.077Z,9.50
2022-12-23T13:08:48.592Z,9.71
2022-12-23T13:11:45.282Z,9.86
2022-12-23T13:14:15.777Z,10.08
2022-12-23T13:17:03.209Z,10.18
2022-12-23T13:20:17.333Z,9.93
2022-12-23T13:22:47.484Z,10.05
2022-12-23T13:25:46.067Z,10.16
2022-12-23T13:29:16.164Z,9.79
2022-12-23T13:32:29.353Z,10.13
2022-12-23T13:35:15.453Z,10.12
2022-12-23T13:38:18.972Z,9.98
2022-12-23T13:41:07.202Z,10.29
2022-12-23T13:43:48.390Z,10.42
2022-12-23T13:46:38.165Z,10.36
2022-12-23T13:49:48.111Z,10.28
2022-12-23T13:53:04.116Z,10.38
2022-12-23T13:55:50.751Z,10.35
2022-12-23T13:58:22.159Z,10.06
2022-12-23T14:01:32.199Z,10.23
2022-12-23T14:04:42.128Z,9.81
2022-12-23T14:07:39.200Z,9.96
2022-12-23T14:10:12.979Z,9.64
2022-12-23T14:12:42.357Z,9.82
2022-12-23T14:15:24.789Z,9.78
2022-12-23T14:18:25.534Z,9.73
2022-12-23T14:21:34.489Z,9.65
2022-12-23T14:24:20.317Z,9.59
2022-12-23T14:27:38.108Z,9.56
2022-12-23T14:30:45.898Z,9.49
2022-12-23T14:33:40.158Z,9.23
2022-12-23T14:36:26.929Z,8.56
2022-12-23T14:39:17.291Z,8.90
2022-12-23T14:41:58.749Z,7.60
2022-12-23T14:44:50.145Z,9.33
2022-12-23T14:47:53.123Z,8.67
2022-12-23T14:50:56.287Z,9.21
2022-12-23T14:53:38.161Z,9.27
2022-12-23T14:56:08.477Z,9.26
2022-12-23T14:58:55.184Z,9.24
2022-12-23T15:02:28.230Z,9.21
2022-12-23T15:05:36.198Z,9.17
2022-12-23T15:08:45.145Z,9.15
2022-12-23T15:11:48.149Z,8.05
2022-12-23T15:14:34.689Z,8.00
2022-12-23T15:17:35.904Z,9.08
2022-12-23T15:20:19.383Z,9.04
2022-12-23T15:22:48.183Z,7.08
2022-12-23T15:25:40.239Z,7.96
2022-12-23T15:28:23.990Z,7.16
2022-12-23T15:31:11.199Z,8.22
2022-12-23T15:34:02.954Z,8.69
2022-12-23T15:36:35.695Z,8.64
2022-12-23T15:39:10.305Z,7.25
2022-12-23T15:41:47.974Z,7.95
2022-12-23T15:44:38.289Z,7.62
2022-12-23T15:47:49.178Z,8.44
2022-12-23T15:50:31.061Z,8.91
2022-12-23T15:53:05.911Z,8.49
2022-12-23T15:55:34.952Z,7.80
2022-12-23T15:58:22.211Z,8.67
2022-12-23T16:01:29.929Z,8.27
2022-12-23T16:04:39.253Z,8.48
2022-12-23T16:07:46.198Z,8.12
2022-12-23T16:10:26.885Z,7.87
2022-12-23T16:12:54.448Z,7.83
2022-12-23T16:15:46.261Z,8.47
2022-12-23T16:18:34.495Z,6.90
2022-12-23T16:21:03.697Z,8.52
2022-12-23T16:23:37.460Z,7.80
2022-12-23T16:26:04.846Z,8.17
2022-12-23T16:28:44.643Z,7.28
2022-12-23T16:31:16.661Z,8.42
2022-12-23T16:33:49.345Z,8.47
2022-12-23T16:36:25.875Z,8.64
2022-12-23T16:39:00.329Z,6.65
2022-12-23T16:41:27.665Z,6.81
2022-12-23T16:43:55.069Z,7.13
2022-12-23T16:46:48.248Z,7.71
2022-12-23T16:49:33.853Z,6.53
2022-12-23T16:52:02.586Z,7.92
2022-12-23T16:54:30.153Z,7.67
2022-12-23T16:56:57.385Z,7.38
2022-12-23T16:59:47.249Z,8.55
2022-12-23T17:02:48.409Z,7.41
2022-12-23T17:05:42.696Z,8.30
2022-12-23T17:08:43.203Z,8.01
2022-12-23T17:11:45.386Z,6.53
2022-12-23T17:14:42.572Z,7.16
2022-12-23T17:17:16.168Z,8.08
2022-12-23T17:19:43.541Z,7.17
2022-12-23T17:22:13.358Z,6.82
2022-12-23T17:25:00.363Z,6.32
2022-12-23T17:27:41.438Z,8.31
2022-12-23T17:30:16.371Z,6.71
2022-12-23T17:32:51.184Z,7.81
2022-12-23T17:35:20.050Z,6.72
2022-12-23T17:37:47.378Z,8.30
2022-12-23T17:40:16.886Z,7.81
2022-12-23T17:42:44.669Z,8.42
2022-12-23T17:45:39.344Z,6.62
2022-12-23T17:48:40.353Z,8.18
2022-12-23T17:51:34.638Z,6.42
2022-12-23T17:54:02.453Z,6.79
2022-12-23T17:56:30.973Z,6.87
2022-12-23T17:58:59.351Z,6.64
2022-12-23T18:01:46.383Z,8.57
2022-12-23T18:04:47.276Z,8.57
2022-12-23T18:07:38.924Z,8.34
2022-12-23T18:10:06.417Z,8.15
2022-12-23T18:12:39.100Z,7.43
2022-12-23T18:15:07.736Z,8.61
2022-12-23T18:17:34.962Z,7.76
2022-12-23T18:20:04.059Z,8.57
2022-12-23T18:22:31.424Z,6.45
2022-12-23T18:24:59.608Z,7.67
2022-12-23T18:27:49.401Z,8.52
2022-12-23T18:30:50.349Z,7.86
2022-12-23T18:33:31.314Z,6.70
2022-12-23T18:35:58.705Z,8.10
2022-12-23T18:38:26.003Z,7.64
2022-12-23T18:40:54.963Z,7.13
2022-12-23T18:43:24.515Z,7.97
2022-12-23T18:46:11.404Z,7.13
2022-12-23T18:49:03.725Z,7.99
2022-12-23T18:51:31.102Z,8.41
2022-12-23T18:53:59.911Z,7.91
2022-12-23T18:56:30.316Z,6.25
2022-12-23T18:58:57.495Z,8.11
2022-12-23T19:01:25.398Z,7.52
2022-12-23T19:04:12.404Z,7.19
2022-12-23T19:07:13.303Z,7.91
2022-12-23T19:09:53.991Z,8.28
2022-12-23T19:12:21.002Z,8.28
2022-12-23T19:14:48.207Z,7.82
2022-12-23T19:17:50.342Z,8.27
2022-12-23T19:20:31.774Z,8.23
2022-12-23T19:22:59.022Z,7.62
2022-12-23T19:25:54.524Z,7.39
2022-12-23T19:28:37.248Z,8.44
2022-12-23T19:31:16.124Z,7.61
2022-12-23T19:33:46.180Z,8.12
2022-12-23T19:36:22.858Z,7.67
2022-12-23T19:38:50.785Z,7.75
2022-12-23T19:41:18.840Z,7.44
2022-12-23T19:43:47.396Z,8.44
2022-12-23T19:46:34.534Z,8.33
2022-12-23T19:49:35.714Z,8.26
2022-12-23T19:52:16.021Z,7.48
2022-12-23T19:54:43.173Z,8.06
2022-12-23T19:57:10.911Z,5.86
2022-12-23T19:59:38.079Z,7.80
2022-12-23T20:02:30.389Z,7.34
2022-12-23T20:05:31.363Z,7.47
2022-12-23T20:08:32.636Z,6.54
2022-12-23T20:11:39.371Z,6.99
2022-12-23T20:14:21.895Z,7.22
2022-12-23T20:16:49.546Z,7.59
2022-12-23T20:19:17.455Z,7.38
2022-12-23T20:21:47.828Z,7.49
2022-12-23T20:24:15.937Z,6.96
2022-12-23T20:26:56.685Z,6.33
2022-12-23T20:29:37.094Z,7.09
2022-12-23T20:32:24.409Z,7.65
2022-12-23T20:35:05.669Z,7.58
2022-12-23T20:37:52.501Z,6.90
2022-12-23T20:40:53.403Z,8.37
2022-12-23T20:44:23.899Z,8.32
2022-12-23T20:47:08.393Z,7.64
2022-12-23T20:50:09.389Z,7.96
2022-12-23T20:52:41.180Z,7.33
2022-12-23T20:55:08.656Z,6.11
2022-12-23T20:57:36.150Z,7.45
2022-12-23T21:00:07.249Z,8.04
2022-12-23T21:02:34.493Z,7.34
2022-12-23T21:05:14.508Z,8.01
2022-12-23T21:08:08.446Z,7.04
2022-12-23T21:11:09.368Z,7.52
2022-12-23T21:13:50.970Z,8.27
2022-12-23T21:16:18.656Z,8.22
2022-12-23T21:18:50.632Z,8.24
2022-12-23T21:21:17.768Z,6.33
2022-12-23T21:24:06.412Z,7.86
2022-12-23T21:26:55.435Z,8.20
2022-12-23T21:30:11.309Z,7.46
2022-12-23T21:33:52.590Z,7.41
2022-12-23T21:36:36.811Z,7.92
2022-12-23T21:39:19.422Z,7.60
2022-12-23T21:42:20.371Z,8.13
2022-12-23T21:45:21.350Z,8.00
2022-12-23T21:48:22.373Z,8.36
2022-12-23T21:51:15.079Z,7.44
2022-12-23T21:53:43.916Z,7.96
2022-12-23T21:56:16.206Z,7.57
2022-12-23T21:58:43.775Z,7.79
2022-12-23T22:01:19.006Z,8.01
2022-12-23T22:04:07.367Z,8.19
2022-12-23T22:07:08.433Z,7.83
2022-12-23T22:10:09.367Z,7.78
2022-12-23T22:13:10.432Z,8.22
2022-12-23T22:16:01.368Z,8.06
2022-12-23T22:18:42.730Z,8.03
2022-12-23T22:21:40.369Z,7.91
2022-12-23T22:24:21.170Z,8.21
2022-12-23T22:26:52.299Z,8.04
2022-12-23T22:29:20.610Z,6.12
2022-12-23T22:31:53.312Z,5.82
2022-12-23T22:34:24.937Z,8.01
2022-12-23T22:36:55.078Z,6.68
2022-12-23T22:39:42.558Z,6.16
2022-12-23T22:42:47.465Z,5.99
2022-12-23T22:45:29.092Z,5.89
2022-12-23T22:48:16.410Z,5.90
2022-12-23T22:51:32.289Z,5.63
2022-12-23T22:54:06.915Z,5.83
2022-12-23T22:56:39.480Z,5.98
2022-12-23T22:59:10.205Z,5.66
2022-12-23T23:01:57.472Z,7.47
2022-12-23T23:04:58.503Z,6.96
2022-12-23T23:07:39.316Z,6.88
2022-12-23T23:10:07.426Z,7.69
2022-12-23T23:12:34.567Z,7.66
2022-12-23T23:15:01.899Z,7.68
2022-12-23T23:17:29.585Z,7.82
2022-12-23T23:20:16.448Z,7.99
2022-12-23T23:23:17.526Z,7.42
2022-12-23T23:26:00.513Z,7.06
2022-12-23T23:28:47.435Z,7.75
2022-12-23T23:31:44.362Z,7.81
2022-12-23T23:34:13.027Z,7.77
2022-12-23T23:36:40.791Z,7.98
2022-12-23T23:39:28.482Z,7.30
2022-12-23T23:42:29.526Z,7.42
2022-12-23T23:45:30.516Z,7.38
2022-12-23T23:48:31.430Z,7.47
2022-12-23T23:51:12.976Z,7.47
2022-12-23T23:53:40.670Z,6.57
2022-12-23T23:56:09.017Z,7.40
2022-12-23T23:58:37.295Z,6.84
